createdAt,value
2022-07-28T00:01:24.648Z,11.70
2022-07-28T00:03:51.319Z,11.60
2022-07-28T00:06:18.128Z,11.70
2022-07-28T00:08:44.785Z,11.70
2022-07-28T00:11:11.484Z,11.50
2022-07-28T00:13:38.240Z,11.50
2022-07-28T00:16:05.266Z,11.40
2022-07-28T00:18:31.931Z,11.40
2022-07-28T00:20:58.986Z,11.40
2022-07-28T00:23:38.577Z,11.40
2022-07-28T00:26:06.895Z,11.30
2022-07-28T00:28:33.644Z,11.20
2022-07-28T00:31:05.330Z,11.20
2022-07-28T00:33:33.513Z,11.30
2022-07-28T00:36:00.168Z,11.30
2022-07-28T00:38:26.852Z,11.30
2022-07-28T00:41:11.715Z,11.30
2022-07-28T00:43:39.123Z,11.30
2022-07-28T00:46:05.982Z,11.30
2022-07-28T00:48:32.741Z,11.30
2022-07-28T00:50:59.508Z,11.20
2022-07-28T00:53:26.650Z,11.20
2022-07-28T00:56:04.345Z,11.10
2022-07-28T00:58:34.053Z,11.10
2022-07-28T01:01:00.782Z,11.10
2022-07-28T01:03:28.107Z,11.20
2022-07-28T01:06:04.825Z,11.10
2022-07-28T01:08:39.795Z,11.10
2022-07-28T01:11:19.712Z,11.00
2022-07-28T01:13:53.833Z,11.00
2022-07-28T01:16:23.637Z,11.10
2022-07-28T01:18:57.939Z,11.00
2022-07-28T01:21:26.535Z,11.00
2022-07-28T01:23:53.195Z,11.00
2022-07-28T01:26:38.291Z,10.90
2022-07-28T01:29:10.713Z,10.80
2022-07-28T01:31:39.580Z,10.80
2022-07-28T01:34:08.332Z,10.60
2022-07-28T01:36:56.346Z,10.60
2022-07-28T01:39:25.254Z,10.70
2022-07-28T01:41:52.322Z,10.70
2022-07-28T01:44:21.857Z,10.70
2022-07-28T01:46:52.852Z,10.60
2022-07-28T01:49:21.176Z,10.60
2022-07-28T01:51:48.355Z,10.50
2022-07-28T01:54:15.812Z,10.50
2022-07-28T01:56:42.982Z,10.40
2022-07-28T01:59:12.154Z,10.50
2022-07-28T02:01:43.623Z,10.50
2022-07-28T02:04:11.475Z,10.60
2022-07-28T02:06:39.136Z,10.60
2022-07-28T02:09:06.803Z,10.50
2022-07-28T02:11:40.797Z,10.40
2022-07-28T02:14:18.106Z,10.40
2022-07-28T02:16:47.003Z,10.30
2022-07-28T02:19:14.345Z,10.30
2022-07-28T02:21:41.916Z,10.20
2022-07-28T02:24:09.158Z,10.20
2022-07-28T02:26:37.927Z,10.30
2022-07-28T02:29:06.448Z,10.30
2022-07-28T02:31:37.778Z,10.30
2022-07-28T02:34:08.389Z,10.40
2022-07-28T02:36:37.365Z,10.30
2022-07-28T02:39:07.573Z,10.30
2022-07-28T02:41:38.017Z,10.20
2022-07-28T02:44:11.921Z,10.10
2022-07-28T02:46:43.224Z,10.10
2022-07-28T02:49:16.405Z,10.10
2022-07-28T02:51:43.615Z,10.10
2022-07-28T02:54:11.081Z,10.10
2022-07-28T02:56:39.055Z,10.10
2022-07-28T02:59:05.953Z,9.90
2022-07-28T03:01:32.777Z,9.90
2022-07-28T03:04:00.938Z,9.90
2022-07-28T03:06:28.795Z,9.90
2022-07-28T03:08:56.617Z,9.80
2022-07-28T03:11:23.439Z,9.70
2022-07-28T03:13:50.093Z,9.60
2022-07-28T03:16:16.780Z,9.60
2022-07-28T03:18:43.669Z,9.80
2022-07-28T03:21:10.433Z,9.70
2022-07-28T03:23:40.314Z,9.80
2022-07-28T03:26:09.990Z,9.60
2022-07-28T03:28:37.903Z,9.50
2022-07-28T03:31:08.264Z,9.50
2022-07-28T03:33:35.174Z,9.60
2022-07-28T03:36:05.640Z,9.70
2022-07-28T03:38:35.655Z,9.80
2022-07-28T03:41:05.651Z,9.80
2022-07-28T03:43:33.586Z,9.70
2022-07-28T03:46:00.311Z,9.80
2022-07-28T03:48:30.738Z,9.80
2022-07-28T03:50:57.689Z,9.90
2022-07-28T03:53:26.211Z,9.90
2022-07-28T03:55:53.859Z,9.90
2022-07-28T03:58:21.291Z,10.00
2022-07-28T04:00:53.301Z,9.90
2022-07-28T04:03:35.728Z,10.00
2022-07-28T04:06:07.371Z,9.90
2022-07-28T04:08:34.093Z,10.00
2022-07-28T04:11:00.802Z,10.10
2022-07-28T04:13:27.471Z,10.10
2022-07-28T04:15:54.124Z,10.10
2022-07-28T04:18:20.844Z,10.20
2022-07-28T04:20:47.550Z,10.20
2022-07-28T04:23:14.296Z,10.30
2022-07-28T04:25:41.059Z,10.30
2022-07-28T04:28:07.715Z,10.30
2022-07-28T04:30:34.490Z,10.40
2022-07-28T04:33:06.187Z,10.50
2022-07-28T04:35:34.796Z,10.60
2022-07-28T04:38:01.508Z,10.60
2022-07-28T04:40:28.420Z,10.70
2022-07-28T04:42:55.542Z,10.90
2022-07-28T04:45:22.600Z,11.10
2022-07-28T04:47:49.318Z,11.30
2022-07-28T04:50:16.083Z,11.40
2022-07-28T04:52:42.807Z,11.40
2022-07-28T04:55:09.578Z,11.50
2022-07-28T04:57:36.541Z,11.70
2022-07-28T05:00:11.805Z,11.80
2022-07-28T05:02:39.909Z,12.00
2022-07-28T05:05:06.821Z,12.20
2022-07-28T05:07:33.597Z,12.40
2022-07-28T05:10:00.272Z,12.60
2022-07-28T05:12:26.908Z,12.80
2022-07-28T05:14:53.594Z,12.90
2022-07-28T05:17:20.364Z,13.00
2022-07-28T05:19:47.094Z,13.20
2022-07-28T05:22:14.006Z,13.30
2022-07-28T05:24:40.672Z,13.40
2022-07-28T05:27:07.511Z,13.50
2022-07-28T05:29:35.145Z,13.60
2022-07-28T05:32:16.582Z,13.70
2022-07-28T05:34:44.643Z,13.90
2022-07-28T05:37:11.390Z,13.90
2022-07-28T05:39:38.071Z,13.90
2022-07-28T05:42:04.815Z,14.00
2022-07-28T05:44:37.210Z,14.10
2022-07-28T05:47:05.057Z,14.20
2022-07-28T05:49:31.747Z,14.20
2022-07-28T05:51:58.402Z,14.40
2022-07-28T05:54:25.066Z,14.50
2022-07-28T05:56:52.790Z,14.60
2022-07-28T05:59:19.497Z,14.70
2022-07-28T06:01:46.686Z,14.80
2022-07-28T06:04:29.397Z,15.00
2022-07-28T06:06:56.583Z,15.00
2022-07-28T06:09:23.359Z,15.10
2022-07-28T06:11:50.855Z,15.20
2022-07-28T06:14:18.545Z,15.30
2022-07-28T06:16:45.781Z,15.30
2022-07-28T06:19:12.603Z,15.30
2022-07-28T06:21:39.251Z,15.30
2022-07-28T06:24:08.378Z,15.40
2022-07-28T06:26:43.685Z,15.40
2022-07-28T06:29:10.926Z,15.40
2022-07-28T06:31:37.632Z,15.40
2022-07-28T06:34:04.344Z,15.50
2022-07-28T06:36:31.052Z,15.50
2022-07-28T06:38:57.732Z,15.60
2022-07-28T06:41:24.409Z,15.70
2022-07-28T06:43:52.289Z,15.90
2022-07-28T06:46:19.824Z,16.10
2022-07-28T06:48:46.839Z,16.20
2022-07-28T06:51:15.145Z,16.30
2022-07-28T06:53:41.858Z,16.40
2022-07-28T06:56:13.766Z,16.50
2022-07-28T06:58:43.991Z,16.50
2022-07-28T07:01:15.129Z,16.50
2022-07-28T07:03:43.002Z,16.50
2022-07-28T07:06:11.066Z,16.60
2022-07-28T07:08:38.056Z,16.60
2022-07-28T07:11:04.747Z,16.60
2022-07-28T07:13:32.343Z,16.60
2022-07-28T07:15:59.129Z,16.60
2022-07-28T07:18:26.150Z,16.70
2022-07-28T07:20:54.667Z,16.70
2022-07-28T07:23:21.490Z,16.80
2022-07-28T07:25:48.354Z,16.90
2022-07-28T07:28:15.233Z,17.00
2022-07-28T07:30:42.037Z,17.00
2022-07-28T07:33:09.757Z,17.10
2022-07-28T07:35:38.036Z,17.20
2022-07-28T07:38:05.295Z,17.20
2022-07-28T07:40:31.985Z,17.30
2022-07-28T07:42:58.659Z,17.40
2022-07-28T07:45:25.396Z,17.30
2022-07-28T07:47:52.061Z,17.50
2022-07-28T07:50:18.727Z,17.60
2022-07-28T07:52:45.511Z,17.60
2022-07-28T07:55:12.189Z,17.70
2022-07-28T07:57:38.888Z,17.80
2022-07-28T08:00:05.939Z,17.90
2022-07-28T08:02:32.655Z,18.00
2022-07-28T08:05:00.671Z,18.00
2022-07-28T08:07:27.492Z,18.10
2022-07-28T08:09:54.511Z,18.30
2022-07-28T08:12:25.245Z,18.30
2022-07-28T08:14:53.366Z,18.40
2022-07-28T08:17:25.238Z,18.40
2022-07-28T08:19:52.934Z,18.40
2022-07-28T08:22:19.613Z,18.40
2022-07-28T08:24:46.319Z,18.60
2022-07-28T08:27:13.045Z,18.50
2022-07-28T08:29:39.751Z,18.60
2022-07-28T08:32:06.648Z,18.60
2022-07-28T08:34:34.501Z,18.60
2022-07-28T08:37:02.121Z,18.60
2022-07-28T08:39:29.313Z,18.70
2022-07-28T08:42:09.212Z,18.70
2022-07-28T08:44:45.220Z,18.80
2022-07-28T08:47:12.279Z,18.80
2022-07-28T08:49:41.008Z,18.90
2022-07-28T08:52:09.979Z,18.90
2022-07-28T08:54:37.311Z,18.90
2022-07-28T08:57:04.189Z,18.90
2022-07-28T08:59:31.245Z,19.00
2022-07-28T09:01:58.074Z,18.90
2022-07-28T09:04:25.028Z,18.80
2022-07-28T09:06:51.739Z,19.00
2022-07-28T09:09:18.506Z,18.90
2022-07-28T09:11:45.162Z,19.00
2022-07-28T09:14:12.133Z,19.00
2022-07-28T09:16:39.044Z,19.20
2022-07-28T09:19:05.679Z,19.00
2022-07-28T09:21:32.439Z,19.00
2022-07-28T09:24:00.712Z,19.00
2022-07-28T09:26:27.402Z,19.10
2022-07-28T09:28:56.993Z,19.20
2022-07-28T09:31:24.925Z,19.20
2022-07-28T09:33:57.905Z,19.30
2022-07-28T09:36:24.874Z,19.30
2022-07-28T09:38:51.684Z,19.30
2022-07-28T09:41:19.774Z,19.30
2022-07-28T09:43:49.841Z,19.30
2022-07-28T09:46:25.414Z,19.30
2022-07-28T09:48:54.422Z,19.40
2022-07-28T09:51:22.719Z,19.40
2022-07-28T09:53:49.829Z,19.50
2022-07-28T09:56:16.575Z,19.70
2022-07-28T09:58:52.700Z,19.70
2022-07-28T10:01:21.222Z,19.70
2022-07-28T10:03:56.055Z,19.70
2022-07-28T10:06:26.404Z,19.80
2022-07-28T10:08:53.500Z,19.90
2022-07-28T10:11:20.823Z,19.90
2022-07-28T10:13:56.464Z,19.90
2022-07-28T10:16:30.544Z,19.90
2022-07-28T10:18:57.818Z,19.90
2022-07-28T10:21:25.419Z,19.80
2022-07-28T10:23:56.005Z,19.80
2022-07-28T10:26:28.996Z,19.80
2022-07-28T10:28:56.231Z,19.80
2022-07-28T10:31:28.101Z,19.90
2022-07-28T10:33:55.593Z,19.90
2022-07-28T10:36:23.672Z,20.00
2022-07-28T10:38:51.618Z,20.10
2022-07-28T10:41:19.183Z,20.10
2022-07-28T10:43:46.702Z,20.10
2022-07-28T10:46:16.867Z,20.20
2022-07-28T10:48:44.379Z,20.20
2022-07-28T10:51:11.567Z,20.40
2022-07-28T10:53:43.416Z,20.50
2022-07-28T10:56:14.138Z,20.50
2022-07-28T10:59:04.559Z,20.50
2022-07-28T11:01:48.597Z,20.50
2022-07-28T11:04:34.966Z,20.60
2022-07-28T11:07:15.268Z,20.70
2022-07-28T11:09:41.971Z,20.70
2022-07-28T11:12:09.936Z,20.70
2022-07-28T11:14:39.509Z,20.80
2022-07-28T11:17:10.707Z,20.70
2022-07-28T11:19:42.607Z,20.70
2022-07-28T11:22:19.116Z,20.60
2022-07-28T11:24:58.261Z,20.70
2022-07-28T11:27:49.803Z,20.70
2022-07-28T11:30:19.753Z,20.80
2022-07-28T11:32:55.692Z,20.70
2022-07-28T11:35:23.192Z,20.80
2022-07-28T11:38:02.006Z,20.90
2022-07-28T11:40:51.213Z,21.00
2022-07-28T11:43:21.998Z,21.00
2022-07-28T11:45:55.457Z,21.10
2022-07-28T11:48:23.275Z,21.10
2022-07-28T11:51:05.420Z,21.00
2022-07-28T11:53:39.115Z,20.80
2022-07-28T11:56:07.147Z,20.90
2022-07-28T11:58:34.090Z,20.90
2022-07-28T12:01:17.902Z,21.10
2022-07-28T12:03:50.413Z,21.10
2022-07-28T12:06:26.246Z,21.30
2022-07-28T12:09:00.570Z,21.30
2022-07-28T12:11:28.264Z,21.30
2022-07-28T12:14:00.890Z,21.40
2022-07-28T12:16:28.255Z,21.40
2022-07-28T12:18:55.266Z,21.40
2022-07-28T12:21:37.197Z,21.50
2022-07-28T12:24:14.842Z,21.60
2022-07-28T12:26:43.245Z,21.60
2022-07-28T12:29:13.802Z,21.60
2022-07-28T12:31:59.234Z,21.70
2022-07-28T12:34:28.901Z,21.80
2022-07-28T12:37:03.225Z,21.90
2022-07-28T12:39:32.411Z,21.90
2022-07-28T12:42:04.562Z,22.00
2022-07-28T12:44:35.398Z,22.10
2022-07-28T12:47:02.332Z,22.20
2022-07-28T12:49:29.024Z,22.20
2022-07-28T12:51:55.785Z,22.20
2022-07-28T12:54:34.296Z,22.20
2022-07-28T12:57:01.100Z,22.30
2022-07-28T12:59:31.918Z,22.20
2022-07-28T13:01:58.797Z,22.20
2022-07-28T13:04:40.590Z,22.20
2022-07-28T13:07:11.522Z,22.20
2022-07-28T13:09:41.565Z,22.30
2022-07-28T13:12:18.535Z,22.20
2022-07-28T13:14:46.332Z,22.30
2022-07-28T13:17:13.495Z,22.30
2022-07-28T13:19:40.277Z,22.30
2022-07-28T13:22:09.305Z,22.20
2022-07-28T13:24:36.309Z,22.20
2022-07-28T13:27:03.590Z,22.30
2022-07-28T13:29:34.407Z,22.40
2022-07-28T13:32:01.344Z,22.50
2022-07-28T13:34:28.121Z,22.50
2022-07-28T13:36:56.984Z,22.60
2022-07-28T13:39:23.735Z,22.50
2022-07-28T13:41:58.296Z,22.50
2022-07-28T13:44:29.003Z,22.50
2022-07-28T13:46:57.169Z,22.60
2022-07-28T13:49:27.524Z,22.80
2022-07-28T13:51:54.723Z,22.90
2022-07-28T13:54:21.534Z,22.80
2022-07-28T13:56:48.375Z,22.90
2022-07-28T13:59:15.080Z,22.90
2022-07-28T14:01:42.339Z,22.90
2022-07-28T14:04:14.658Z,22.80
2022-07-28T14:06:45.049Z,22.80
2022-07-28T14:09:12.346Z,22.80
2022-07-28T14:11:49.652Z,23.00
2022-07-28T14:14:20.441Z,23.10
2022-07-28T14:16:51.573Z,23.10
2022-07-28T14:19:23.647Z,23.10
2022-07-28T14:22:10.455Z,23.10
2022-07-28T14:24:39.870Z,23.00
2022-07-28T14:27:06.580Z,23.10
2022-07-28T14:29:33.285Z,23.20
2022-07-28T14:32:00.161Z,23.20
2022-07-28T14:34:26.918Z,23.30
2022-07-28T14:36:53.620Z,23.30
2022-07-28T14:39:20.369Z,23.40
2022-07-28T14:41:47.074Z,23.50
2022-07-28T14:44:23.904Z,23.60
2022-07-28T14:46:51.575Z,23.70
2022-07-28T14:49:18.409Z,23.70
2022-07-28T14:51:45.125Z,23.60
2022-07-28T14:54:12.544Z,23.70
2022-07-28T14:56:39.522Z,23.70
2022-07-28T14:59:06.394Z,23.80
2022-07-28T15:01:36.044Z,23.70
2022-07-28T15:04:03.431Z,23.80
2022-07-28T15:06:30.140Z,23.80
2022-07-28T15:08:57.842Z,23.80
2022-07-28T15:11:24.554Z,23.80
2022-07-28T15:13:51.332Z,23.80
2022-07-28T15:16:18.051Z,24.00
2022-07-28T15:18:45.199Z,24.00
2022-07-28T15:21:16.022Z,24.00
2022-07-28T15:23:42.832Z,24.10
2022-07-28T15:26:09.990Z,24.20
2022-07-28T15:28:36.848Z,24.30
2022-07-28T15:31:03.617Z,24.30
2022-07-28T15:33:35.080Z,24.30
2022-07-28T15:36:01.760Z,24.40
2022-07-28T15:38:29.131Z,24.40
2022-07-28T15:40:58.683Z,24.40
2022-07-28T15:43:25.462Z,24.40
2022-07-28T15:45:54.329Z,24.60
2022-07-28T15:48:22.729Z,24.80
2022-07-28T15:50:49.490Z,25.00
2022-07-28T15:53:16.626Z,25.00
2022-07-28T15:55:47.545Z,24.90
2022-07-28T15:58:17.488Z,24.90
2022-07-28T16:00:44.551Z,24.70
2022-07-28T16:03:11.613Z,24.60
2022-07-28T16:05:38.501Z,24.50
2022-07-28T16:08:05.323Z,24.50
2022-07-28T16:10:32.187Z,24.40
2022-07-28T16:12:59.023Z,24.50
2022-07-28T16:15:27.037Z,24.70
2022-07-28T16:17:54.084Z,24.70
2022-07-28T16:20:21.080Z,24.50
2022-07-28T16:22:47.927Z,24.40
2022-07-28T16:25:17.658Z,24.20
2022-07-28T16:27:44.708Z,24.10
2022-07-28T16:30:12.017Z,23.90
2022-07-28T16:32:39.513Z,23.70
2022-07-28T16:35:06.985Z,23.60
2022-07-28T16:37:34.084Z,23.50
2022-07-28T16:40:00.784Z,23.50
2022-07-28T16:42:27.504Z,23.50
2022-07-28T16:44:54.160Z,23.60
2022-07-28T16:47:21.130Z,23.60
2022-07-28T16:49:47.857Z,23.60
2022-07-28T16:52:14.975Z,23.60
2022-07-28T16:54:42.055Z,23.60
2022-07-28T16:57:09.079Z,23.70
2022-07-28T16:59:37.001Z,23.80
2022-07-28T17:02:07.383Z,23.80
2022-07-28T17:04:34.255Z,23.90
2022-07-28T17:07:01.046Z,23.80
2022-07-28T17:09:27.740Z,23.70
2022-07-28T17:11:54.522Z,23.60
2022-07-28T17:14:21.466Z,23.50
2022-07-28T17:16:48.499Z,23.50
2022-07-28T17:19:15.175Z,23.40
2022-07-28T17:21:42.146Z,23.50
2022-07-28T17:24:12.109Z,23.50
2022-07-28T17:27:35.199Z,23.40
2022-07-28T17:29:25.925Z,23.30
2022-07-28T17:31:52.723Z,23.10
2022-07-28T17:34:19.421Z,23.10
2022-07-28T17:36:46.111Z,23.10
2022-07-28T17:39:12.836Z,23.00
2022-07-28T17:41:39.772Z,23.00
2022-07-28T17:44:06.462Z,22.90
2022-07-28T17:46:34.990Z,22.90
2022-07-28T17:49:03.292Z,22.80
2022-07-28T17:51:30.880Z,22.80
2022-07-28T17:53:57.940Z,22.70
2022-07-28T17:56:25.060Z,22.60
2022-07-28T17:58:52.615Z,22.50
2022-07-28T18:01:19.440Z,22.40
2022-07-28T18:03:59.303Z,22.40
2022-07-28T18:06:28.415Z,22.30
2022-07-28T18:08:55.079Z,22.30
2022-07-28T18:11:21.783Z,22.20
2022-07-28T18:14:03.673Z,22.20
2022-07-28T18:16:32.513Z,22.10
2022-07-28T18:18:59.305Z,22.00
2022-07-28T18:21:26.771Z,21.90
2022-07-28T18:23:54.804Z,21.90
2022-07-28T18:26:22.269Z,21.80
2022-07-28T18:28:49.133Z,21.80
2022-07-28T18:31:15.882Z,21.80
2022-07-28T18:33:42.732Z,21.60
2022-07-28T18:36:10.099Z,21.60
2022-07-28T18:38:36.816Z,21.60
2022-07-28T18:41:03.490Z,21.50
2022-07-28T18:43:30.167Z,21.40
2022-07-28T18:45:56.915Z,21.40
2022-07-28T18:48:25.575Z,21.40
2022-07-28T18:50:52.585Z,21.20
2022-07-28T18:53:19.236Z,21.20
2022-07-28T18:55:45.927Z,21.10
2022-07-28T18:58:12.632Z,21.00
2022-07-28T19:00:39.297Z,20.90
2022-07-28T19:03:06.155Z,20.80
2022-07-28T19:05:36.461Z,20.80
2022-07-28T19:08:04.826Z,20.80
2022-07-28T19:10:32.379Z,20.60
2022-07-28T19:12:59.342Z,20.50
2022-07-28T19:15:26.144Z,20.50
2022-07-28T19:18:10.857Z,20.30
2022-07-28T19:20:42.422Z,20.30
2022-07-28T19:23:09.113Z,20.10
2022-07-28T19:25:36.458Z,20.10
2022-07-28T19:28:03.832Z,20.10
2022-07-28T19:30:32.298Z,20.00
2022-07-28T19:32:59.342Z,19.90
2022-07-28T19:35:26.101Z,19.70
2022-07-28T19:37:52.849Z,19.70
2022-07-28T19:40:19.859Z,19.60
2022-07-28T19:42:48.494Z,19.60
2022-07-28T19:45:15.373Z,19.50
2022-07-28T19:47:42.702Z,19.40
2022-07-28T19:50:09.695Z,19.30
2022-07-28T19:52:37.580Z,19.20
2022-07-28T19:55:05.230Z,19.00
2022-07-28T19:57:33.413Z,19.00
2022-07-28T20:00:02.147Z,18.90
2022-07-28T20:02:29.004Z,18.80
2022-07-28T20:04:56.080Z,18.80
2022-07-28T20:07:23.957Z,18.70
2022-07-28T20:09:50.693Z,18.50
2022-07-28T20:12:17.577Z,18.60
2022-07-28T20:14:44.237Z,18.50
2022-07-28T20:17:24.400Z,18.50
2022-07-28T20:19:56.803Z,18.40
2022-07-28T20:22:23.835Z,18.30
2022-07-28T20:24:50.725Z,18.10
2022-07-28T20:27:17.393Z,18.10
2022-07-28T20:29:44.165Z,18.00
2022-07-28T20:32:11.125Z,17.90
2022-07-28T20:34:38.706Z,17.80
2022-07-28T20:37:05.503Z,17.70
2022-07-28T20:39:45.055Z,17.80
2022-07-28T20:42:12.322Z,17.70
2022-07-28T20:44:39.019Z,17.70
2022-07-28T20:47:05.757Z,17.70
2022-07-28T20:49:32.531Z,17.50
2022-07-28T20:51:59.293Z,17.40
2022-07-28T20:54:26.399Z,17.40
2022-07-28T20:56:53.714Z,17.40
2022-07-28T20:59:20.452Z,17.30
2022-07-28T21:01:47.358Z,17.10
2022-07-28T21:04:14.728Z,17.10
2022-07-28T21:06:51.673Z,17.00
2022-07-28T21:09:18.936Z,17.00
2022-07-28T21:11:45.675Z,16.80
2022-07-28T21:14:12.454Z,16.70
2022-07-28T21:16:39.235Z,16.50
2022-07-28T21:19:06.051Z,16.80
2022-07-28T21:21:32.771Z,16.60
2022-07-28T21:23:59.479Z,16.50
2022-07-28T21:26:26.210Z,16.50
2022-07-28T21:29:12.386Z,16.60
2022-07-28T21:32:04.485Z,16.40
2022-07-28T21:34:26.430Z,16.40
2022-07-28T21:36:53.141Z,16.30
2022-07-28T21:39:19.808Z,16.40
2022-07-28T21:41:46.654Z,16.40
2022-07-28T21:44:13.389Z,16.30
2022-07-28T21:46:42.388Z,16.40
2022-07-28T21:49:09.388Z,16.20
2022-07-28T21:51:36.152Z,16.20
2022-07-28T21:54:04.316Z,16.10
2022-07-28T21:56:32.367Z,16.00
2022-07-28T21:58:59.027Z,16.00
2022-07-28T22:01:27.045Z,15.80
2022-07-28T22:03:54.343Z,15.90
2022-07-28T22:06:21.065Z,15.90
2022-07-28T22:08:53.755Z,15.90
2022-07-28T22:11:21.464Z,16.00
2022-07-28T22:13:48.445Z,16.10
2022-07-28T22:16:15.332Z,16.20
2022-07-28T22:18:42.188Z,16.20
2022-07-28T22:21:08.905Z,16.20
2022-07-28T22:23:35.548Z,16.10
2022-07-28T22:26:02.502Z,16.10
2022-07-28T22:28:30.583Z,16.10
2022-07-28T22:30:58.165Z,16.10
2022-07-28T22:33:24.956Z,16.20
2022-07-28T22:35:51.624Z,16.10
2022-07-28T22:38:18.734Z,16.10
2022-07-28T22:40:45.409Z,16.10
2022-07-28T22:43:12.056Z,16.30
2022-07-28T22:45:50.228Z,16.30
2022-07-28T22:48:18.301Z,16.30
2022-07-28T22:50:45.087Z,16.40
2022-07-28T22:53:11.786Z,16.30
2022-07-28T22:55:39.237Z,16.20
2022-07-28T22:58:06.088Z,16.30
2022-07-28T23:00:32.854Z,16.30
2022-07-28T23:03:03.002Z,16.30
2022-07-28T23:05:30.852Z,16.30
2022-07-28T23:07:58.918Z,16.20
2022-07-28T23:10:26.436Z,16.00
2022-07-28T23:12:56.079Z,16.20
2022-07-28T23:15:25.285Z,16.10
2022-07-28T23:18:07.598Z,16.00
2022-07-28T23:20:34.322Z,16.10
2022-07-28T23:23:01.001Z,16.10
2022-07-28T23:25:28.033Z,16.00
2022-07-28T23:27:54.687Z,16.00
2022-07-28T23:30:21.342Z,16.00
2022-07-28T23:32:50.200Z,16.00
2022-07-28T23:35:16.856Z,15.90
2022-07-28T23:37:43.550Z,15.90
2022-07-28T23:40:10.567Z,15.80
2022-07-28T23:42:37.258Z,15.80
2022-07-28T23:45:04.453Z,15.70
2022-07-28T23:47:31.315Z,15.90
2022-07-28T23:49:58.100Z,15.80
2022-07-28T23:52:24.784Z,15.90
2022-07-28T23:54:51.513Z,15.90
2022-07-28T23:57:18.268Z,15.90
2022-07-28T23:59:44.982Z,16.00
